createdAt,value
2022-09-13T00:00:38.356Z,49.60
2022-09-13T00:05:42.871Z,49.40
2022-09-13T00:10:46.625Z,49.40
2022-09-13T00:15:51.099Z,49.20
2022-09-13T00:21:05.360Z,49.50
2022-09-13T00:26:10.038Z,50.10
2022-09-13T00:31:14.034Z,49.80
2022-09-13T00:36:18.792Z,49.90
2022-09-13T00:41:22.225Z,50.00
2022-09-13T00:46:34.699Z,50.00
2022-09-13T00:51:39.867Z,50.10
2022-09-13T00:56:47.009Z,50.10
2022-09-13T01:01:56.568Z,50.30
2022-09-13T01:07:05.356Z,50.40
2022-09-13T01:12:16.063Z,50.30
2022-09-13T01:17:19.216Z,50.20
2022-09-13T01:22:52.040Z,50.00
2022-09-13T01:28:18.951Z,50.60
2022-09-13T01:33:54.095Z,50.60
2022-09-13T01:39:03.959Z,50.80
2022-09-13T01:44:17.792Z,50.50
2022-09-13T01:49:28.797Z,51.50
2022-09-13T01:54:38.654Z,50.80
2022-09-13T01:59:49.445Z,50.70
2022-09-13T02:04:57.639Z,51.10
2022-09-13T02:10:07.222Z,50.70
2022-09-13T02:15:14.850Z,50.70
2022-09-13T02:20:24.787Z,50.80
2022-09-13T02:25:31.305Z,51.00
2022-09-13T02:30:40.262Z,50.90
2022-09-13T02:35:50.043Z,51.00
2022-09-13T02:40:59.665Z,51.30
2022-09-13T02:46:16.148Z,51.30
2022-09-13T02:51:29.896Z,51.50
2022-09-13T02:56:41.779Z,51.60
2022-09-13T03:01:48.837Z,51.50
2022-09-13T03:06:53.316Z,51.40
2022-09-13T03:12:42.148Z,51.30
2022-09-13T03:17:54.661Z,52.10
2022-09-13T03:23:37.829Z,51.70
2022-09-13T03:28:48.709Z,52.10
2022-09-13T03:33:57.689Z,51.80
2022-09-13T03:39:11.852Z,51.90
2022-09-13T03:44:22.512Z,51.70
2022-09-13T03:49:28.639Z,51.70
2022-09-13T03:54:37.154Z,51.70
2022-09-13T03:59:44.420Z,51.80
2022-09-13T04:04:48.848Z,51.90
2022-09-13T04:09:53.109Z,51.80
2022-09-13T04:14:55.976Z,52.00
2022-09-13T04:19:58.860Z,52.00
2022-09-13T04:25:03.443Z,52.00
2022-09-13T04:30:07.457Z,52.20
2022-09-13T04:35:10.976Z,52.20
2022-09-13T04:40:15.483Z,52.30
2022-09-13T04:45:18.691Z,52.30
2022-09-13T04:50:21.901Z,52.30
2022-09-13T04:55:27.211Z,52.30
2022-09-13T05:00:31.572Z,52.40
2022-09-13T05:05:34.447Z,52.20
2022-09-13T05:10:38.682Z,52.40
2022-09-13T05:15:41.600Z,52.70
2022-09-13T05:20:44.557Z,52.60
2022-09-13T05:25:54.765Z,52.70
2022-09-13T05:30:58.362Z,53.10
2022-09-13T05:36:01.769Z,52.70
2022-09-13T05:41:07.212Z,52.90
2022-09-13T05:46:13.487Z,53.00
2022-09-13T05:51:17.830Z,53.30
2022-09-13T05:56:23.894Z,53.10
2022-09-13T06:01:29.062Z,53.60
2022-09-13T06:06:31.981Z,53.40
2022-09-13T06:11:36.221Z,53.40
2022-09-13T06:16:39.141Z,53.70
2022-09-13T06:21:42.073Z,53.50
2022-09-13T06:26:46.315Z,53.60
2022-09-13T06:31:49.244Z,53.80
2022-09-13T06:36:52.177Z,53.70
2022-09-13T06:41:56.390Z,53.70
2022-09-13T06:47:13.481Z,54.00
2022-09-13T06:52:16.452Z,53.80
2022-09-13T06:57:20.707Z,53.80
2022-09-13T07:02:24.975Z,54.00
2022-09-13T07:07:28.204Z,53.80
2022-09-13T07:12:32.437Z,53.80
2022-09-13T07:17:35.345Z,54.10
2022-09-13T07:22:38.213Z,54.00
2022-09-13T07:27:42.453Z,54.10
2022-09-13T07:32:45.559Z,54.50
2022-09-13T07:37:48.428Z,54.60
2022-09-13T07:42:52.816Z,54.70
2022-09-13T07:47:56.395Z,55.10
2022-09-13T07:52:59.272Z,55.00
2022-09-13T07:58:03.528Z,55.00
2022-09-13T08:03:06.423Z,55.20
2022-09-13T08:08:09.340Z,55.30
2022-09-13T08:13:13.658Z,55.30
2022-09-13T08:18:16.992Z,55.70
2022-09-13T08:23:19.884Z,55.90
2022-09-13T08:28:27.630Z,55.80
2022-09-13T08:33:30.924Z,56.00
2022-09-13T08:38:33.844Z,55.90
2022-09-13T08:43:46.605Z,56.00
2022-09-13T08:48:52.506Z,56.50
2022-09-13T08:53:56.106Z,56.10
2022-09-13T08:59:23.181Z,56.10
2022-09-13T09:04:38.532Z,56.40
2022-09-13T09:09:46.583Z,56.20
2022-09-13T09:15:02.077Z,56.00
2022-09-13T09:20:16.569Z,55.70
2022-09-13T09:25:21.548Z,55.40
2022-09-13T09:30:35.497Z,55.30
2022-09-13T09:35:48.487Z,55.00
2022-09-13T09:40:51.552Z,54.60
2022-09-13T09:45:58.160Z,54.80
2022-09-13T09:51:03.003Z,54.60
2022-09-13T09:56:15.387Z,54.80
2022-09-13T10:01:23.903Z,54.70
2022-09-13T10:06:30.061Z,54.60
2022-09-13T10:11:41.873Z,54.50
2022-09-13T10:16:46.200Z,53.70
2022-09-13T10:22:01.274Z,54.10
2022-09-13T10:27:05.290Z,53.90
2022-09-13T10:32:12.926Z,54.20
2022-09-13T10:37:21.396Z,54.00
2022-09-13T10:42:26.272Z,54.00
2022-09-13T10:47:34.581Z,54.00
2022-09-13T10:52:44.207Z,53.60
2022-09-13T10:57:48.815Z,53.00
2022-09-13T11:03:07.697Z,52.90
2022-09-13T11:08:39.851Z,52.00
2022-09-13T11:13:56.356Z,51.30
2022-09-13T11:19:22.984Z,50.60
2022-09-13T11:24:58.416Z,50.70
2022-09-13T11:30:12.196Z,50.70
2022-09-13T11:35:47.952Z,50.00
2022-09-13T11:40:59.758Z,50.30
2022-09-13T11:46:10.845Z,50.40
2022-09-13T11:51:26.151Z,50.30
2022-09-13T11:56:34.513Z,50.20
2022-09-13T12:01:43.738Z,50.40
2022-09-13T12:06:53.622Z,50.10
2022-09-13T12:12:04.531Z,50.00
2022-09-13T12:17:18.490Z,50.10
2022-09-13T12:22:28.924Z,50.20
2022-09-13T12:27:40.584Z,49.70
2022-09-13T12:32:44.937Z,50.30
2022-09-13T12:38:07.264Z,50.10
2022-09-13T12:43:27.216Z,49.10
2022-09-13T12:48:59.868Z,48.70
2022-09-13T12:54:31.584Z,48.30
2022-09-13T12:59:49.453Z,48.20
2022-09-13T13:04:57.251Z,47.50
2022-09-13T13:10:03.111Z,48.40
2022-09-13T13:15:08.120Z,47.90
2022-09-13T13:20:42.857Z,47.50
2022-09-13T13:26:00.926Z,46.80
2022-09-13T13:31:04.007Z,46.30
2022-09-13T13:36:22.423Z,46.50
2022-09-13T13:41:44.543Z,46.40
2022-09-13T13:46:48.455Z,46.40
2022-09-13T13:52:37.453Z,46.70
2022-09-13T13:57:53.319Z,46.10
2022-09-13T14:03:11.121Z,45.40
2022-09-13T14:08:36.935Z,45.20
2022-09-13T14:13:51.142Z,45.50
2022-09-13T14:19:06.324Z,45.50
2022-09-13T14:24:16.439Z,45.10
2022-09-13T14:29:22.716Z,45.40
2022-09-13T14:34:29.431Z,45.00
2022-09-13T14:39:32.971Z,44.80
2022-09-13T14:44:37.221Z,44.40
2022-09-13T14:49:46.232Z,44.40
2022-09-13T14:54:57.174Z,44.30
2022-09-13T15:00:05.227Z,44.60
2022-09-13T15:05:15.536Z,44.20
2022-09-13T15:10:25.685Z,44.20
2022-09-13T15:15:36.952Z,44.10
2022-09-13T15:20:49.948Z,44.20
2022-09-13T15:25:55.158Z,44.30
2022-09-13T15:31:02.074Z,44.70
2022-09-13T15:36:17.474Z,44.70
2022-09-13T15:41:21.793Z,44.80
2022-09-13T15:46:26.493Z,44.50
2022-09-13T15:51:30.351Z,44.60
2022-09-13T15:56:35.411Z,44.80
2022-09-13T16:01:39.842Z,44.90
2022-09-13T16:06:43.236Z,45.00
2022-09-13T16:11:46.396Z,45.10
2022-09-13T16:16:51.617Z,45.30
2022-09-13T16:21:54.573Z,45.50
2022-09-13T16:27:00.241Z,45.60
2022-09-13T16:32:05.086Z,45.10
2022-09-13T16:37:08.184Z,45.40
2022-09-13T16:42:11.105Z,45.60
2022-09-13T16:47:15.412Z,45.80
2022-09-13T16:52:18.481Z,46.10
2022-09-13T16:57:21.475Z,46.10
2022-09-13T17:02:26.435Z,46.10
2022-09-13T17:07:29.364Z,46.20
2022-09-13T17:12:32.325Z,46.30
2022-09-13T17:17:36.941Z,46.40
2022-09-13T17:22:40.432Z,46.60
2022-09-13T17:27:43.320Z,46.60
2022-09-13T17:32:47.564Z,46.70
2022-09-13T17:37:50.422Z,47.00
2022-09-13T17:42:53.295Z,47.80
2022-09-13T17:47:58.909Z,46.80
2022-09-13T17:53:02.170Z,47.00
2022-09-13T17:58:05.188Z,47.10
2022-09-13T18:03:09.609Z,47.30
2022-09-13T18:08:12.787Z,47.50
2022-09-13T18:13:15.679Z,47.60
2022-09-13T18:18:20.149Z,47.80
2022-09-13T18:23:23.068Z,48.40
2022-09-13T18:28:25.943Z,48.40
2022-09-13T18:33:30.678Z,48.50
2022-09-13T18:38:35.805Z,48.80
2022-09-13T18:43:40.268Z,48.90
2022-09-13T18:48:46.541Z,49.00
2022-09-13T18:53:50.414Z,49.40
2022-09-13T18:58:55.152Z,49.40
2022-09-13T19:04:01.301Z,49.60
2022-09-13T19:09:05.949Z,49.80
2022-09-13T19:14:09.411Z,49.70
2022-09-13T19:19:13.763Z,49.80
2022-09-13T19:24:18.713Z,50.30
2022-09-13T19:29:23.652Z,50.20
2022-09-13T19:34:28.431Z,50.40
2022-09-13T19:39:31.287Z,50.60
2022-09-13T19:44:34.176Z,50.40
2022-09-13T19:49:38.510Z,50.50
2022-09-13T19:54:41.383Z,50.80
2022-09-13T19:59:44.582Z,50.70
2022-09-13T20:04:49.499Z,50.90
2022-09-13T20:09:52.482Z,51.30
2022-09-13T20:14:56.651Z,51.20
2022-09-13T20:20:00.866Z,51.30
2022-09-13T20:25:04.608Z,51.40
2022-09-13T20:30:09.781Z,51.20
2022-09-13T20:35:14.053Z,51.30
2022-09-13T20:40:17.699Z,51.60
2022-09-13T20:45:21.616Z,51.60
2022-09-13T20:50:27.022Z,51.70
2022-09-13T20:55:29.887Z,51.90
2022-09-13T21:00:32.792Z,51.60
2022-09-13T21:05:39.006Z,51.90
2022-09-13T21:10:42.183Z,52.60
2022-09-13T21:15:45.046Z,52.20
2022-09-13T21:20:56.960Z,52.30
2022-09-13T21:26:04.188Z,53.30
2022-09-13T21:31:10.237Z,52.90
2022-09-13T21:36:15.005Z,52.70
2022-09-13T21:41:19.521Z,52.90
2022-09-13T21:46:24.606Z,53.00
2022-09-13T21:51:30.578Z,53.10
2022-09-13T21:56:35.641Z,53.20
2022-09-13T22:01:40.055Z,53.00
2022-09-13T22:06:44.762Z,53.00
2022-09-13T22:11:49.490Z,53.30
2022-09-13T22:16:53.515Z,53.30
2022-09-13T22:21:59.531Z,53.30
2022-09-13T22:27:02.651Z,53.70
2022-09-13T22:32:05.946Z,53.60
2022-09-13T22:37:10.837Z,53.40
2022-09-13T22:42:13.856Z,53.80
2022-09-13T22:47:16.754Z,53.60
2022-09-13T22:52:20.970Z,53.60
2022-09-13T22:57:24.027Z,54.00
2022-09-13T23:02:26.917Z,54.00
2022-09-13T23:07:31.136Z,54.30
2022-09-13T23:12:34.016Z,54.50
2022-09-13T23:17:36.884Z,54.30
2022-09-13T23:22:41.629Z,54.40
2022-09-13T23:27:44.541Z,54.70
2022-09-13T23:32:48.508Z,54.40
2022-09-13T23:37:52.805Z,54.60
2022-09-13T23:42:55.957Z,54.70
2022-09-13T23:47:58.893Z,54.60
2022-09-13T23:53:03.177Z,54.60
2022-09-13T23:58:06.220Z,55.00
